Time;durP1;ratioP1;P1;durP2;ratioP2;P2;SDS_P1;SDS_P2;PMS_P1;PMS_P2;Temp;Humidity;BMP_temperature;BMP_pressure;BME280_temperature;BME280_humidity;BME280_pressure;Samples;Min_cycle;Max_cycle;Signal;HPM_P1;HPM_P2
2022/06/05 00:00:06;;;;;;;14.35;8.90;;;;;;;9.20;100.00;101869.03;4914142;29;20032;-75
2022/06/05 00:03:15;;;;;;;14.63;8.98;;;;;;;9.17;100.00;101855.94;4914628;29;20044;-75
2022/06/05 00:05:47;;;;;;;13.55;8.48;;;;;;;9.12;100.00;101855.47;4882890;29;20417;-75
2022/06/05 00:08:21;;;;;;;17.27;9.75;;;;;;;9.01;100.00;101851.03;4925335;29;20044;-76
2022/06/05 00:10:56;;;;;;;14.48;9.45;;;;;;;9.01;100.00;101855.50;4925425;23;20513;-71
2022/06/05 00:13:21;;;;;;;14.13;8.95;;;;;;;8.93;100.00;101844.63;4925758;29;20635;-71
2022/06/05 00:15:46;;;;;;;16.23;9.20;;;;;;;8.90;100.00;101839.53;4917509;29;20032;-70
2022/06/05 00:18:12;;;;;;;12.82;7.88;;;;;;;8.87;100.00;101840.63;4910997;29;20460;-72
2022/06/05 00:20:41;;;;;;;15.38;9.20;;;;;;;8.84;100.00;101840.91;4909217;29;20078;-71
2022/06/05 00:23:07;;;;;;;13.70;9.50;;;;;;;8.80;100.00;101845.66;4900126;29;20592;-72
2022/06/05 00:26:11;;;;;;;15.35;9.55;;;;;;;8.75;100.00;101846.97;4903423;29;20024;-72
2022/06/05 00:28:52;;;;;;;13.55;9.25;;;;;;;8.69;100.00;101836.84;4896886;29;20528;-72
2022/06/05 00:31:35;;;;;;;12.07;7.72;;;;;;;8.65;100.00;101842.38;4899964;29;20036;-72
2022/06/05 00:34:01;;;;;;;13.52;8.52;;;;;;;8.63;100.00;101840.81;4895834;29;20691;-72
2022/06/05 00:36:42;;;;;;;34.23;11.13;;;;;;;8.62;100.00;101842.63;4885574;29;20036;-72
2022/06/05 00:39:29;;;;;;;15.32;9.00;;;;;;;8.56;100.00;101832.47;4892597;29;20055;-71
2022/06/05 00:42:19;;;;;;;11.75;7.55;;;;;;;8.52;100.00;101828.38;4899208;29;20139;-72
2022/06/05 00:44:51;;;;;;;13.23;9.43;;;;;;;8.54;100.00;101828.25;4897433;29;20032;-72
2022/06/05 00:47:24;;;;;;;12.18;7.80;;;;;;;8.52;100.00;101830.16;4899770;29;20036;-72
2022/06/05 00:49:52;;;;;;;12.48;8.32;;;;;;;8.54;100.00;101825.56;4899192;29;20135;-71
2022/06/05 00:52:20;;;;;;;17.48;8.63;;;;;;;8.51;100.00;101818.69;4900615;29;20032;-72
2022/06/05 00:54:45;;;;;;;12.23;7.93;;;;;;;8.50;100.00;101824.13;4901024;29;20055;-72
2022/06/05 00:57:13;;;;;;;13.93;8.90;;;;;;;8.50;100.00;101817.00;4898738;29;20600;-72
2022/06/05 00:59:41;;;;;;;15.70;8.85;;;;;;;8.49;100.00;101825.09;4897983;29;20043;-72
2022/06/05 01:02:08;;;;;;;13.25;8.38;;;;;;;8.44;100.00;101818.31;4899415;29;20534;-72
2022/06/05 01:04:37;;;;;;;14.10;8.57;;;;;;;8.41;100.00;101823.06;4901256;29;20036;-72
2022/06/05 01:07:03;;;;;;;12.02;8.00;;;;;;;8.34;100.00;101817.34;4895594;29;20030;-72
2022/06/05 01:09:29;;;;;;;16.75;9.05;;;;;;;8.38;100.00;101817.94;4885158;29;20408;-72
2022/06/05 01:12:15;;;;;;;13.23;7.90;;;;;;;8.41;100.00;101826.56;4889693;29;20043;-72
2022/06/05 01:15:06;;;;;;;15.25;8.52;;;;;;;8.33;100.00;101828.94;4898849;29;20040;-72
2022/06/05 01:17:46;;;;;;;11.00;7.72;;;;;;;8.25;100.00;101829.56;4898436;29;20052;-72
2022/06/05 01:20:44;;;;;;;12.68;9.10;;;;;;;8.22;100.00;101829.81;4895430;29;20032;-71
2022/06/05 01:23:28;;;;;;;12.05;8.30;;;;;;;8.17;100.00;101823.13;4854393;29;20483;-72
2022/06/05 01:26:04;;;;;;;16.65;9.85;;;;;;;8.21;100.00;101827.25;4899511;29;20040;-72
2022/06/05 01:28:41;;;;;;;16.20;8.80;;;;;;;8.19;100.00;101839.81;4901571;29;20058;-72
2022/06/05 01:31:07;;;;;;;14.27;8.05;;;;;;;8.06;100.00;101829.31;4886267;29;20047;-72
2022/06/05 01:33:37;;;;;;;13.47;9.10;;;;;;;8.01;100.00;101818.19;4900230;29;20028;-72
2022/06/05 01:36:06;;;;;;;14.40;8.93;;;;;;;7.96;100.00;101818.53;4895198;29;20037;-71
2022/06/05 01:38:57;;;;;;;15.23;9.45;;;;;;;8.02;100.00;101818.06;4898237;29;20545;-71
2022/06/05 01:41:29;;;;;;;15.05;9.27;;;;;;;7.99;100.00;101820.97;4881210;29;20621;-72
2022/06/05 01:43:59;;;;;;;15.93;9.25;;;;;;;7.88;100.00;101820.94;4898166;29;20039;-72
2022/06/05 01:46:35;;;;;;;15.38;9.20;;;;;;;7.91;100.00;101818.03;4901117;29;20095;-71
2022/06/05 01:49:17;;;;;;;14.38;8.65;;;;;;;7.88;100.00;101815.63;4896735;29;20437;-72
2022/06/05 01:51:55;;;;;;;13.38;8.70;;;;;;;7.83;100.00;101813.31;4898300;29;20462;-72
2022/06/05 01:54:30;;;;;;;15.98;8.55;;;;;;;7.81;100.00;101804.59;4898804;29;20024;-72
2022/06/05 01:56:58;;;;;;;16.38;10.50;;;;;;;7.84;100.00;101806.19;4897461;29;20063;-72
2022/06/05 01:59:51;;;;;;;16.23;9.40;;;;;;;7.82;100.00;101803.66;4900789;29;20443;-72
2022/06/05 02:02:27;;;;;;;13.68;8.48;;;;;;;7.80;100.00;101799.44;4904622;29;20475;-72
2022/06/05 02:05:00;;;;;;;19.02;9.38;;;;;;;7.82;100.00;101801.00;4898641;29;20512;-72
2022/06/05 02:07:36;;;;;;;20.42;10.40;;;;;;;7.92;100.00;101805.59;4899674;29;20103;-72
2022/06/05 02:10:18;;;;;;;13.38;8.45;;;;;;;7.80;100.00;101804.75;4889563;29;20036;-72
2022/06/05 02:12:44;;;;;;;14.68;9.40;;;;;;;7.70;100.00;101793.13;4912139;29;20165;-72
2022/06/05 02:15:10;;;;;;;12.80;8.90;;;;;;;7.68;100.00;101785.28;4898669;29;20500;-72
2022/06/05 02:17:38;;;;;;;14.02;8.82;;;;;;;7.61;100.00;101782.25;4899952;29;20039;-72
2022/06/05 02:20:07;;;;;;;17.65;9.35;;;;;;;7.58;100.00;101781.59;4897862;29;20162;-72
2022/06/05 02:22:41;;;;;;;16.00;8.57;;;;;;;7.59;100.00;101776.19;4897412;29;20052;-72
2022/06/05 02:25:08;;;;;;;21.90;11.75;;;;;;;7.67;100.00;101786.22;4912751;29;20036;-72
2022/06/05 02:27:33;;;;;;;18.70;10.18;;;;;;;7.67;100.00;101788.03;4900121;29;20366;-71
2022/06/05 02:29:59;;;;;;;14.55;9.18;;;;;;;7.65;100.00;101782.84;4897699;29;20043;-72
2022/06/05 02:32:45;;;;;;;17.73;9.77;;;;;;;7.59;100.00;101776.19;4908328;29;20032;-72
2022/06/05 02:35:41;;;;;;;14.88;8.25;;;;;;;7.54;100.00;101770.38;4891001;29;20240;-71
2022/06/05 02:38:22;;;;;;;13.75;8.50;;;;;;;7.57;100.00;101770.13;4898716;29;20041;-72
2022/06/05 02:41:04;;;;;;;13.68;9.80;;;;;;;7.58;100.00;101770.97;4903147;29;20485;-71
2022/06/05 02:46:55;;;;;;;16.33;9.40;;;;;;;7.54;100.00;101767.72;4899106;29;20043;-71
2022/06/05 02:49:20;;;;;;;18.95;9.60;;;;;;;7.61;100.00;101778.75;4902367;29;20521;-72
2022/06/05 02:51:47;;;;;;;17.37;8.97;;;;;;;7.63;100.00;101782.09;4902751;29;20053;-72
2022/06/05 02:54:21;;;;;;;15.70;9.68;;;;;;;7.65;100.00;101780.19;4902755;29;20032;-72
2022/06/05 02:56:46;;;;;;;16.63;9.35;;;;;;;7.64;100.00;101769.69;4902966;29;20577;-72
2022/06/05 02:59:12;;;;;;;13.48;8.82;;;;;;;7.64;100.00;101764.38;4900749;29;20024;-72
2022/06/05 03:04:21;;;;;;;17.98;9.57;;;;;;;7.70;100.00;101747.91;4903690;29;20037;-71
2022/06/05 03:06:47;;;;;;;18.53;11.17;;;;;;;7.86;100.00;101753.75;4902891;29;20034;-72
2022/06/05 03:09:12;;;;;;;23.30;11.73;;;;;;;8.04;100.00;101767.41;4900715;29;20426;-71
2022/06/05 03:11:38;;;;;;;26.67;12.13;;;;;;;8.11;100.00;101781.06;4902287;29;20048;-72
2022/06/05 03:14:04;;;;;;;19.97;12.03;;;;;;;8.15;100.00;101782.53;4915363;29;20289;-72
2022/06/05 03:16:29;;;;;;;24.48;11.57;;;;;;;8.21;100.00;101792.66;4904421;29;20028;-72
2022/06/05 03:18:55;;;;;;;16.60;10.40;;;;;;;8.14;100.00;101791.47;4892167;29;20581;-71
2022/06/05 03:21:20;;;;;;;17.53;10.77;;;;;;;8.06;100.00;101791.22;4901404;29;20549;-71
2022/06/05 03:23:46;;;;;;;18.33;11.77;;;;;;;8.06;100.00;101794.72;4885728;29;20036;-71
2022/06/05 03:26:12;;;;;;;20.63;10.90;;;;;;;8.14;100.00;101786.13;4901721;29;20503;-72
2022/06/05 03:28:38;;;;;;;16.50;9.73;;;;;;;8.12;100.00;101783.59;4903613;29;20123;-72
2022/06/05 03:31:06;;;;;;;20.65;12.63;;;;;;;8.14;100.00;101783.47;4900562;29;20024;-72
2022/06/05 03:33:31;;;;;;;18.10;12.05;;;;;;;8.13;100.00;101789.78;4900103;29;20047;-72
2022/06/05 03:35:56;;;;;;;26.30;12.83;;;;;;;8.30;100.00;101797.25;4899837;29;20406;-72
2022/06/05 03:38:22;;;;;;;20.23;11.90;;;;;;;8.40;100.00;101811.53;4902617;29;20064;-72
2022/06/05 03:40:47;;;;;;;19.43;10.60;;;;;;;8.47;100.00;101813.72;4900598;29;20032;-72
2022/06/05 03:43:14;;;;;;;28.83;14.40;;;;;;;8.53;100.00;101808.75;4915324;29;20040;-71
2022/06/05 03:45:40;;;;;;;21.88;11.98;;;;;;;8.64;100.00;101803.44;4901924;29;20024;-72
2022/06/05 03:48:06;;;;;;;19.63;10.95;;;;;;;8.67;100.00;101805.00;4914898;29;20380;-72
2022/06/05 03:50:31;;;;;;;20.20;11.68;;;;;;;8.71;100.00;101803.78;4903850;29;20040;-72
2022/06/05 03:52:58;;;;;;;16.20;9.73;;;;;;;8.82;100.00;101806.38;4899217;29;20047;-72
2022/06/05 03:55:23;;;;;;;;;;;;;;;8.98;100.00;101800.66;4903014;29;20033;-72
2022/06/05 03:57:49;;;;;;;;;;;;;;;9.02;100.00;101790.63;4902072;29;19927;-72
2022/06/05 04:00:17;;;;;;;17.90;10.82;;;;;;;9.05;100.00;101777.03;4901376;29;19919;-72
2022/06/05 04:02:44;;;;;;;25.55;12.35;;;;;;;9.14;100.00;101780.75;4902072;29;20040;-72
2022/06/05 04:05:13;;;;;;;20.45;11.93;;;;;;;9.21;100.00;101784.59;4901031;29;20036;-71
2022/06/05 04:07:39;;;;;;;21.17;11.15;;;;;;;9.24;100.00;101771.84;4902652;29;20154;-72
2022/06/05 04:10:06;;;;;;;29.23;14.45;;;;;;;9.41;100.00;101785.56;4914472;29;20028;-72
2022/06/05 04:12:31;;;;;;;;;;;;;;;9.56;100.00;101783.44;4902267;29;20318;-72
2022/06/05 04:14:58;;;;;;;;;;;;;;;9.67;100.00;101786.88;4899507;29;19978;-72
2022/06/05 04:17:24;;;;;;;22.00;11.68;;;;;;;9.79;100.00;101785.00;4902712;29;19920;-72
2022/06/05 04:19:52;;;;;;;23.17;12.83;;;;;;;9.90;100.00;101781.38;4899780;29;20083;-72
2022/06/05 04:22:17;;;;;;;23.02;12.25;;;;;;;10.00;100.00;101778.78;4899780;29;20072;-72
2022/06/05 04:24:42;;;;;;;23.90;13.17;;;;;;;10.15;100.00;101780.94;4900749;29;20075;-72
2022/06/05 04:27:08;;;;;;;29.53;14.27;;;;;;;10.34;100.00;101782.84;4898941;29;20064;-72
2022/06/05 04:29:33;;;;;;;20.63;12.30;;;;;;;10.48;100.00;101792.31;4902901;29;20036;-72
2022/06/05 04:31:59;;;;;;;22.87;14.07;;;;;;;10.59;100.00;101780.69;4913864;29;20041;-72
2022/06/05 04:34:24;;;;;;;23.77;11.90;;;;;;;10.68;100.00;101771.00;4916695;29;20055;-72
2022/06/05 04:36:50;;;;;;;23.57;12.40;;;;;;;10.82;100.00;101773.28;4899348;29;20381;-72
2022/06/05 04:39:16;;;;;;;23.67;13.53;;;;;;;11.01;100.00;101766.25;4883874;29;20028;-72
2022/06/05 04:41:42;;;;;;;23.95;13.90;;;;;;;11.16;100.00;101771.03;4901379;29;20139;-72
2022/06/05 04:44:11;;;;;;;29.23;15.73;;;;;;;11.29;100.00;101776.09;4897615;29;20032;-72
2022/06/05 04:46:37;;;;;;;32.60;16.40;;;;;;;11.45;100.00;101774.66;4901084;29;20055;-72
2022/06/05 04:49:03;;;;;;;26.57;15.00;;;;;;;11.59;100.00;101772.41;4898031;29;20025;-72
2022/06/05 04:51:28;;;;;;;29.38;15.13;;;;;;;11.74;100.00;101767.41;4889873;29;20820;-72
2022/06/05 04:53:56;;;;;;;27.57;15.83;;;;;;;11.90;100.00;101763.34;4913609;29;20032;-72
2022/06/05 04:56:24;;;;;;;28.67;16.48;;;;;;;12.06;100.00;101758.19;4900927;29;20451;-72
2022/06/05 04:58:50;;;;;;;25.63;15.48;;;;;;;12.23;100.00;101754.72;4898977;29;20034;-72
2022/06/05 05:01:28;;;;;;;24.33;15.95;;;;;;;12.42;100.00;101755.63;4900812;29;20048;-72
2022/06/05 05:04:00;;;;;;;25.70;13.52;;;;;;;12.60;100.00;101753.81;4899937;29;20121;-72
2022/06/05 05:06:27;;;;;;;30.10;16.58;;;;;;;12.71;100.00;101749.22;4902465;29;20028;-72
2022/06/05 05:08:53;;;;;;;31.90;17.20;;;;;;;12.82;100.00;101749.84;4899792;29;20036;-72
2022/06/05 05:11:19;;;;;;;34.78;17.83;;;;;;;12.78;100.00;101758.31;4895245;29;20424;-72
2022/06/05 05:13:45;;;;;;;38.05;18.35;;;;;;;12.95;100.00;101752.16;4900795;29;20024;-72
2022/06/05 05:16:11;;;;;;;35.23;19.13;;;;;;;12.98;100.00;101735.75;4899669;29;20557;-72
2022/06/05 05:18:36;;;;;;;35.67;18.77;;;;;;;13.23;100.00;101742.16;4900574;29;20501;-72
2022/06/05 05:21:09;;;;;;;32.53;18.13;;;;;;;13.46;100.00;101742.53;4898548;29;20523;-72
2022/06/05 05:23:35;;;;;;;37.38;17.35;;;;;;;13.58;100.00;101734.19;4898954;29;20051;-72
2022/06/05 05:26:12;;;;;;;25.05;14.65;;;;;;;14.02;100.00;101709.94;4894690;29;20024;-73
2022/06/05 05:28:38;;;;;;;31.33;16.60;;;;;;;14.41;100.00;101698.66;4912642;29;20529;-73
2022/06/05 05:31:13;;;;;;;23.05;14.70;;;;;;;14.67;100.00;101685.97;4898045;29;20028;-73
2022/06/05 05:33:39;;;;;;;22.92;15.13;;;;;;;15.06;100.00;101674.56;4898405;29;20036;-72
2022/06/05 05:36:06;;;;;;;22.52;13.57;;;;;;;16.08;100.00;101653.22;4898708;29;20020;-73
2022/06/05 05:38:32;;;;;;;21.05;12.80;;;;;;;16.82;100.00;101580.78;4897957;29;20455;-73
2022/06/05 05:43:41;;;;;;;24.20;13.07;;;;;;;17.75;100.00;101456.16;4895862;29;20044;-73
2022/06/05 05:46:09;;;;;;;20.23;12.87;;;;;;;16.67;100.00;101455.88;4898743;29;20039;-72
2022/06/05 05:48:35;;;;;;;17.33;12.48;;;;;;;17.18;100.00;101520.69;4901076;29;20296;-73
2022/06/05 05:51:00;;;;;;;20.00;11.85;;;;;;;17.81;100.00;101522.94;4896188;29;20032;-73
2022/06/05 05:53:26;;;;;;;23.83;13.40;;;;;;;16.41;100.00;101383.53;4915159;29;20167;-73
2022/06/05 05:55:51;;;;;;;18.10;12.17;;;;;;;17.07;100.00;101580.53;4899534;29;20043;-72
2022/06/05 05:58:16;;;;;;;18.40;12.30;;;;;;;18.15;100.00;101568.19;4898276;29;20044;-73
2022/06/05 06:00:42;;;;;;;20.93;12.90;;;;;;;18.87;100.00;101401.31;4900682;29;20036;-73
2022/06/05 06:03:07;;;;;;;21.67;14.10;;;;;;;18.69;100.00;101377.47;4898300;29;20032;-73
2022/06/05 06:05:33;;;;;;;18.75;13.02;;;;;;;16.88;100.00;101337.34;4901476;29;20035;-72
2022/06/05 06:07:59;;;;;;;17.63;13.00;;;;;;;16.51;100.00;101516.19;4896550;29;20460;-72
2022/06/05 06:10:25;;;;;;;21.30;14.70;;;;;;;16.63;100.00;101516.56;4899355;29;20337;-73
2022/06/05 06:12:50;;;;;;;19.38;12.60;;;;;;;17.29;100.00;101582.31;4898115;29;20075;-73
2022/06/05 06:15:15;;;;;;;17.50;10.33;;;;;;;18.73;100.00;101566.22;4913960;29;20115;-73
2022/06/05 06:17:41;;;;;;;17.83;11.73;;;;;;;18.07;100.00;101371.91;4899131;29;20485;-74
2022/06/05 06:20:07;;;;;;;20.53;12.57;;;;;;;17.53;100.00;101364.34;4898011;29;20039;-74
2022/06/05 06:22:35;;;;;;;22.65;11.50;;;;;;;17.97;100.00;101538.06;4900732;29;20040;-73
2022/06/05 06:25:01;;;;;;;18.35;12.00;;;;;;;17.39;100.00;101436.25;4894069;29;20021;-74
2022/06/05 06:27:27;;;;;;;18.80;11.57;;;;;;;17.91;100.00;101518.06;4900741;29;20123;-73
2022/06/05 06:29:52;;;;;;;17.02;12.43;;;;;;;19.16;100.00;101454.31;4898573;29;20099;-73
2022/06/05 06:32:18;;;;;;;16.03;10.67;;;;;;;19.57;100.00;101356.75;4913839;29;20037;-73
2022/06/05 06:34:43;;;;;;;14.67;10.47;;;;;;;18.61;100.00;101445.25;4899791;29;20032;-73
2022/06/05 06:37:09;;;;;;;16.03;11.13;;;;;;;19.72;100.00;101412.63;4897917;29;20053;-72
2022/06/05 06:39:34;;;;;;;17.70;11.93;;;;;;;19.36;100.00;101327.97;4897061;29;20280;-72
2022/06/05 06:42:00;;;;;;;16.48;12.43;;;;;;;18.65;100.00;101219.34;4889681;29;20032;-73
2022/06/05 06:44:25;;;;;;;17.15;11.90;;;;;;;18.43;100.00;101321.41;4900251;29;20099;-74
2022/06/05 06:46:51;;;;;;;14.90;10.93;;;;;;;18.16;100.00;101442.84;4896623;29;20152;-73
2022/06/05 06:49:17;;;;;;;16.53;11.07;;;;;;;18.81;100.00;101411.06;4912715;29;20276;-74
2022/06/05 06:51:43;;;;;;;16.85;11.73;;;;;;;19.31;100.00;101406.25;4899228;29;20068;-73
2022/06/05 06:54:08;;;;;;;21.00;12.97;;;;;;;17.42;100.00;101308.19;4896866;29;20028;-73
2022/06/05 06:56:35;;;;;;;19.17;12.00;;;;;;;17.63;100.00;101478.28;4900927;29;20508;-73
2022/06/05 06:59:02;;;;;;;22.10;11.82;;;;;;;18.31;100.00;101534.69;4884598;29;20269;-73
2022/06/05 07:01:28;;;;;;;20.00;12.98;;;;;;;18.70;100.00;101371.84;4914904;29;20043;-74
2022/06/05 07:03:53;;;;;;;19.67;11.63;;;;;;;18.54;100.00;101420.84;4897132;29;20028;-72
2022/06/05 07:06:20;;;;;;;22.00;11.32;;;;;;;18.96;100.00;101272.91;4913864;29;20312;-73
2022/06/05 07:08:46;;;;;;;;;;;;;;;18.67;100.00;101166.72;4898415;29;20028;-73
2022/06/05 07:11:15;;;;;;;14.25;8.15;;;;;;;18.98;99.90;101113.94;4897463;29;20296;-74
2022/06/05 07:13:41;;;;;;;11.23;8.95;;;;;;;18.15;100.00;101149.34;4898006;29;20056;-74
2022/06/05 07:16:08;;;;;;;11.95;8.48;;;;;;;18.02;100.00;101185.25;4884766;29;20123;-74
2022/06/05 07:18:34;;;;;;;12.85;8.23;;;;;;;18.03;100.00;101273.38;4901006;29;20024;-73
2022/06/05 07:21:10;;;;;;;8.17;6.97;;;;;;;18.50;100.00;101306.06;4900639;29;20044;-73
2022/06/05 07:23:35;;;;;;;10.93;7.43;;;;;;;18.02;100.00;101190.66;4900820;29;20098;-73
2022/06/05 07:26:01;;;;;;;10.90;7.35;;;;;;;18.74;100.00;101228.94;4899545;29;20041;-74
2022/06/05 07:28:26;;;;;;;11.77;7.38;;;;;;;18.72;98.88;101174.22;4902221;29;20027;-73
2022/06/05 07:30:52;;;;;;;9.40;6.60;;;;;;;19.21;97.48;101226.34;4900207;29;20179;-73
2022/06/05 07:33:18;;;;;;;10.52;7.03;;;;;;;18.33;91.11;101002.81;4899222;29;20524;-73
2022/06/05 07:35:44;;;;;;;9.05;6.60;;;;;;;18.94;94.14;101181.16;4883393;29;20046;-73
2022/06/05 07:38:10;;;;;;;9.90;7.03;;;;;;;19.47;93.99;101241.75;4901063;29;20041;-73
2022/06/05 07:40:41;;;;;;;10.73;7.43;;;;;;;19.68;91.86;101189.22;4894593;29;20631;-73
2022/06/05 07:43:09;;;;;;;10.57;7.25;;;;;;;19.86;90.27;101194.00;4915316;29;20478;-75
2022/06/05 07:45:35;;;;;;;6.32;4.78;;;;;;;20.43;83.46;101157.84;4903799;29;20076;-74
2022/06/05 07:48:01;;;;;;;6.70;3.50;;;;;;;20.55;72.74;100978.97;4900627;29;20040;-74
2022/06/05 07:50:26;;;;;;;2.97;2.60;;;;;;;20.57;63.69;100769.97;4900524;29;20032;-74
2022/06/05 07:55:35;;;;;;;4.47;3.42;;;;;;;20.43;65.35;100867.69;4897111;29;20303;-74
2022/06/05 07:58:01;;;;;;;3.67;2.63;;;;;;;19.93;58.18;100566.22;4887540;29;20039;-74
2022/06/05 08:00:27;;;;;;;3.42;2.80;;;;;;;20.44;58.53;100687.69;4902857;29;20047;-73
2022/06/05 08:02:52;;;;;;;4.70;2.70;;;;;;;20.03;60.69;100753.44;4900994;29;20040;-73
2022/06/05 08:05:17;;;;;;;4.60;3.10;;;;;;;20.98;61.35;100907.63;4900631;29;20088;-73
2022/06/05 08:07:43;;;;;;;5.03;2.80;;;;;;;21.54;59.33;100912.94;4902312;29;20032;-73
2022/06/05 08:10:08;;;;;;;3.10;2.33;;;;;;;19.83;54.96;100499.03;4900166;29;20039;-73
2022/06/05 08:12:35;;;;;;;2.58;2.17;;;;;;;19.97;57.49;100755.19;4902899;29;20035;-74
2022/06/05 08:15:05;;;;;;;2.58;2.03;;;;;;;21.06;54.85;100820.44;4871612;29;20054;-73
2022/06/05 08:17:31;;;;;;;1.80;1.70;;;;;;;20.88;52.32;100703.78;4899261;29;20505;-74
2022/06/05 08:19:58;;;;;;;2.97;1.92;;;;;;;20.22;49.91;100470.50;4890863;29;20028;-73
2022/06/05 08:22:24;;;;;;;2.95;2.25;;;;;;;21.06;51.31;100727.31;4902011;29;20036;-73
2022/06/05 08:24:52;;;;;;;1.90;1.65;;;;;;;19.96;51.58;100519.69;4899685;29;20521;-73
2022/06/05 08:27:19;;;;;;;1.80;1.70;;;;;;;19.93;52.54;100628.53;4899894;29;20032;-73
2022/06/05 08:29:45;;;;;;;2.92;1.95;;;;;;;19.90;52.30;100591.03;4892156;29;20608;-72
2022/06/05 08:32:13;;;;;;;3.20;1.95;;;;;;;21.01;54.40;100900.91;4898905;29;20064;-74
2022/06/05 08:34:39;;;;;;;2.50;2.00;;;;;;;21.68;53.09;100939.72;4901018;29;20028;-74
2022/06/05 08:42:50;;;;;;;2.42;2.15;;;;;;;22.01;51.70;100922.06;4895490;29;20119;-73
2022/06/05 08:45:27;;;;;;;4.18;2.33;;;;;;;22.32;46.93;100662.56;4897922;29;20079;-74
2022/06/05 08:48:05;;;;;;;3.10;1.80;;;;;;;21.90;47.84;100670.94;4897956;29;20421;-74
2022/06/05 08:50:45;;;;;;;2.38;2.05;;;;;;;21.92;48.82;100727.78;4898801;29;20032;-74
2022/06/05 08:53:22;;;;;;;3.30;2.28;;;;;;;21.88;51.54;100863.31;4904173;29;20183;-74
2022/06/05 08:55:52;;;;;;;2.63;1.70;;;;;;;21.12;47.29;100489.41;4915322;29;20495;-73
2022/06/05 08:58:59;;;;;;;2.55;1.40;;;;;;;21.80;46.30;100550.34;4905848;29;20591;-73
2022/06/05 09:01:45;;;;;;;1.48;1.30;;;;;;;21.96;44.73;100567.75;4898334;29;20954;-74
2022/06/05 09:04:27;;;;;;;1.33;1.23;;;;;;;22.03;44.11;100451.53;4912520;29;20051;-74
2022/06/05 09:07:04;;;;;;;1.90;1.70;;;;;;;22.28;48.66;100840.88;4899895;29;20052;-74
2022/06/05 09:09:59;;;;;;;1.40;1.30;;;;;;;22.84;45.63;100710.59;4902102;29;20492;-73
2022/06/05 09:12:36;;;;;;;2.22;1.80;;;;;;;21.69;45.06;100437.91;4900107;29;20063;-73
2022/06/05 09:15:15;;;;;;;1.90;1.65;;;;;;;22.57;45.85;100668.72;4874987;29;20055;-74
2022/06/05 09:17:51;;;;;;;1.73;1.63;;;;;;;22.05;45.69;100601.63;4898851;29;20062;-73
2022/06/05 09:20:17;;;;;;;4.78;2.55;;;;;;;22.09;45.52;100551.16;4898860;29;20131;-74
2022/06/05 09:22:59;;;;;;;2.47;1.35;;;;;;;20.95;45.79;100356.34;4900694;29;20042;-73
2022/06/05 09:25:53;;;;;;;2.03;1.17;;;;;;;21.25;46.24;100494.59;4900301;29;20032;-72
2022/06/05 09:28:44;;;;;;;1.70;1.35;;;;;;;21.75;44.79;100482.28;4896625;29;20037;-73
2022/06/05 09:31:31;;;;;;;1.85;1.15;;;;;;;21.90;45.22;100573.09;4896236;29;20149;-74
2022/06/05 09:33:59;;;;;;;1.85;1.08;;;;;;;22.57;43.77;100536.25;4897633;29;20040;-73
2022/06/05 09:36:27;;;;;;;1.10;1.02;;;;;;;23.17;41.90;100586.47;4901140;29;20020;-73
2022/06/05 09:39:14;;;;;;;2.50;1.92;;;;;;;23.70;42.44;100715.84;4899337;29;20047;-73
2022/06/05 09:41:58;;;;;;;1.58;1.17;;;;;;;23.84;42.54;100716.34;4897613;29;20478;-73
2022/06/05 09:44:38;;;;;;;1.50;1.40;;;;;;;24.37;41.23;100697.63;4899609;29;20079;-74
2022/06/05 09:47:13;;;;;;;1.30;1.20;;;;;;;23.61;42.19;100605.59;4895161;29;20040;-74
2022/06/05 09:49:45;;;;;;;1.60;1.50;;;;;;;23.65;42.35;100584.09;4894474;29;20099;-73
2022/06/05 09:52:14;;;;;;;2.65;1.38;;;;;;;23.59;41.94;100575.88;4898771;29;20532;-73
2022/06/05 09:54:47;;;;;;;1.67;1.15;;;;;;;24.23;39.40;100463.47;4897224;29;20032;-73
2022/06/05 10:00:24;;;;;;;1.13;1.08;;;;;;;22.08;41.11;100204.28;4894740;29;20041;-73
2022/06/05 10:02:50;;;;;;;1.83;1.50;;;;;;;22.61;42.64;100469.38;4896886;29;20148;-73
2022/06/05 10:05:27;;;;;;;0.93;0.90;;;;;;;22.80;40.53;100368.41;4882492;29;20466;-74
2022/06/05 10:08:04;;;;;;;1.42;1.15;;;;;;;23.55;41.25;100588.38;4898781;29;20036;-73
2022/06/05 10:10:38;;;;;;;1.98;0.93;;;;;;;23.14;40.48;100402.63;4901287;29;20397;-73
2022/06/05 10:13:29;;;;;;;1.35;1.00;;;;;;;23.16;40.32;100389.59;4874964;29;20037;-73
2022/06/05 10:16:03;;;;;;;1.20;1.10;;;;;;;23.88;41.00;100607.59;4896486;29;20402;-73
2022/06/05 10:18:45;;;;;;;2.45;0.88;;;;;;;24.42;39.76;100588.56;4900880;29;20072;-74
2022/06/05 10:21:11;;;;;;;2.00;1.10;;;;;;;24.09;39.14;100472.31;4892037;29;20508;-74
2022/06/05 10:23:45;;;;;;;1.58;1.08;;;;;;;25.43;39.17;100702.50;4889138;29;20071;-74
2022/06/05 10:26:33;;;;;;;1.30;1.13;;;;;;;25.42;38.95;100634.44;4898346;29;20047;-73
2022/06/05 10:29:25;;;;;;;2.08;1.25;;;;;;;25.37;39.09;100596.16;4896709;29;20399;-73
2022/06/05 10:32:01;;;;;;;1.13;1.02;;;;;;;25.30;37.97;100480.81;4897534;29;20032;-74
2022/06/05 10:34:43;;;;;;;1.75;1.30;;;;;;;25.90;37.37;100499.34;4899125;29;20036;-73
2022/06/05 10:37:11;;;;;;;1.92;1.20;;;;;;;25.30;40.20;100622.88;4895342;29;20115;-74
2022/06/05 10:39:55;;;;;;;1.40;1.30;;;;;;;25.54;39.30;100602.25;4899265;29;20031;-74
2022/06/05 10:42:29;;;;;;;1.33;1.00;;;;;;;25.44;37.32;100378.13;4899553;29;20597;-74
2022/06/05 10:45:13;;;;;;;1.30;1.10;;;;;;;25.63;37.42;100431.16;4897940;29;20344;-73
2022/06/05 10:47:57;;;;;;;1.27;0.95;;;;;;;25.50;36.79;100366.13;4897692;29;20047;-73
2022/06/05 10:50:36;;;;;;;1.38;1.25;;;;;;;24.70;35.26;99992.47;4898579;29;20037;-74
2022/06/05 10:53:33;;;;;;;1.73;1.63;;;;;;;25.55;38.72;100540.22;4892401;29;20518;-75
2022/06/05 10:56:31;;;;;;;1.20;1.10;;;;;;;25.54;37.20;100361.72;4896518;29;20055;-73
2022/06/05 10:59:11;;;;;;;1.30;1.20;;;;;;;26.39;38.33;100634.88;4885959;29;20044;-74
2022/06/05 11:02:15;;;;;;;2.38;1.85;;;;;;;25.47;38.75;100393.97;4900799;29;20547;-74
2022/06/05 11:04:54;;;;;;;1.92;1.73;;;;;;;25.52;41.14;100598.97;4899253;29;20591;-74
2022/06/05 11:07:59;;;;;;;2.30;2.00;;;;;;;23.72;42.44;100280.34;4903165;29;20037;-74
2022/06/05 11:13:39;;;;;;;1.95;1.85;;;;;;;23.82;42.49;100380.47;4901571;29;20036;-74
2022/06/05 11:16:38;;;;;;;3.38;1.55;;;;;;;23.87;39.38;100115.28;4895892;29;20372;-74
2022/06/05 11:19:22;;;;;;;1.55;1.45;;;;;;;24.06;40.87;100337.31;4892218;29;20479;-74
2022/06/05 11:21:50;;;;;;;1.75;1.65;;;;;;;24.89;41.12;100546.09;4900571;29;20024;-75
2022/06/05 11:24:21;;;;;;;1.35;1.10;;;;;;;24.97;39.18;100389.97;4902491;29;20021;-73
2022/06/05 11:26:54;;;;;;;1.35;1.25;;;;;;;24.28;38.04;100124.44;4901137;29;20048;-74
2022/06/05 11:29:46;;;;;;;1.95;1.77;;;;;;;25.47;39.56;100582.53;4901381;29;20032;-75
2022/06/05 11:32:20;;;;;;;1.70;1.60;;;;;;;26.08;39.93;100677.72;4897440;29;20076;-73
2022/06/05 11:34:58;;;;;;;1.17;1.10;;;;;;;24.43;38.24;100118.19;4901543;29;20048;-73
2022/06/05 11:38:01;;;;;;;1.85;1.50;;;;;;;24.07;39.75;100202.63;4901853;29;20037;-74
2022/06/05 11:40:50;;;;;;;1.70;1.40;;;;;;;24.06;42.04;100370.03;4901621;29;20036;-74
2022/06/05 11:43:29;;;;;;;1.75;1.58;;;;;;;25.52;39.73;100516.13;4898968;29;20419;-74
2022/06/05 11:46:20;;;;;;;2.38;1.60;;;;;;;24.63;40.17;100335.75;4899968;29;20039;-74
2022/06/05 11:48:57;;;;;;;2.33;1.75;;;;;;;25.27;41.05;100555.94;4914911;29;20515;-73
2022/06/05 11:51:30;;;;;;;1.77;1.65;;;;;;;25.51;40.79;100591.84;4901035;29;20100;-75
2022/06/05 11:54:13;;;;;;;2.35;2.15;;;;;;;25.33;40.96;100496.66;4899563;29;20536;-74
2022/06/05 11:56:54;;;;;;;2.83;1.90;;;;;;;25.68;40.57;100584.28;4899122;29;20044;-75
2022/06/05 11:59:29;;;;;;;2.10;1.90;;;;;;;26.22;40.46;100708.13;4901806;29;20513;-74
2022/06/05 12:02:22;;;;;;;2.05;1.85;;;;;;;26.39;42.44;100863.94;4899294;29;20044;-74